PRIVATE WETTERSTATION BILLIGHEIM-ALLFELD                       ZURCK
Wetterdaten: Mittwoch, 30.03.2016
Datum Zeit Temp. A. Temp. A. min Temp. A. max Feuchte A. Luftdruck Regen Wind Richtung Richtung Sonnenschein ET Solar Taupunkt Windchill Windben Empfang
30.03.2016 00:00 4,7 C 4,7 C 4,9 C 90 % 1012,6 hPa 0,0 l/m 0,0 km/h (0 Bft) S-SO 157 0 min 0,000 mm 0 W/m 3,2 C 4,7 C 1,6 km/h (1 Bft) 98 %
30.03.2016 00:10 4,7 C 4,7 C 4,7 C 91 % 1012,2 hPa 0,0 l/m 0,0 km/h (0 Bft) S-SO 157 0 min 0,000 mm 0 W/m 3,4 C 4,7 C 4,8 km/h (1 Bft) 97 %
30.03.2016 00:20 5,0 C 4,7 C 5,0 C 91 % 1012,0 hPa 0,0 l/m 1,6 km/h (1 Bft) SO 135 0 min 0,000 mm 0 W/m 3,7 C 5,0 C 4,8 km/h (1 Bft) 97 %
30.03.2016 00:30 5,1 C 5,0 C 5,1 C 91 % 1012,2 hPa 0,0 l/m 0,0 km/h (0 Bft) SO 135 0 min 0,000 mm 0 W/m 3,8 C 5,1 C 3,2 km/h (1 Bft) 97 %
30.03.2016 00:40 4,9 C 4,8 C 5,1 C 90 % 1012,3 hPa 0,0 l/m 0,0 km/h (0 Bft) N 0 0 min 0,000 mm 0 W/m 3,4 C 4,9 C 0,0 km/h (0 Bft) 98 %
30.03.2016 00:50 4,7 C 4,7 C 4,8 C 91 % 1012,0 hPa 0,0 l/m 0,0 km/h (0 Bft) N 0 0 min 0,000 mm 0 W/m 3,4 C 4,7 C 0,0 km/h (0 Bft) 97 %
30.03.2016 01:00 4,6 C 4,6 C 4,7 C 91 % 1012,1 hPa 0,0 l/m 0,0 km/h (0 Bft) N 0 0 min 0,000 mm 0 W/m 3,3 C 4,6 C 0,0 km/h (0 Bft) 98 %
30.03.2016 01:10 4,5 C 4,5 C 4,7 C 91 % 1012,0 hPa 0,0 l/m 0,0 km/h (0 Bft) N 0 0 min 0,000 mm 0 W/m 3,2 C 4,5 C 0,0 km/h (0 Bft) 97 %
30.03.2016 01:20 4,4 C 4,4 C 4,5 C 91 % 1011,9 hPa 0,0 l/m 0,0 km/h (0 Bft) N 0 0 min 0,000 mm 0 W/m 3,1 C 4,4 C 0,0 km/h (0 Bft) 97 %
30.03.2016 01:30 4,4 C 4,4 C 4,4 C 91 % 1011,8 hPa 0,0 l/m 0,0 km/h (0 Bft) N 0 0 min 0,000 mm 0 W/m 3,1 C 4,4 C 0,0 km/h (0 Bft) 98 %
30.03.2016 01:40 4,3 C 4,3 C 4,4 C 91 % 1011,7 hPa 0,0 l/m 0,0 km/h (0 Bft) N 0 0 min 0,000 mm 0 W/m 3,0 C 4,3 C 0,0 km/h (0 Bft) 97 %
30.03.2016 01:50 4,1 C 4,1 C 4,3 C 91 % 1011,6 hPa 0,0 l/m 0,0 km/h (0 Bft) N 0 0 min 0,000 mm 0 W/m 2,8 C 4,1 C 0,0 km/h (0 Bft) 98 %
30.03.2016 02:00 4,1 C 4,1 C 4,1 C 91 % 1011,5 hPa 0,0 l/m 0,0 km/h (0 Bft) SO 135 0 min 0,000 mm 0 W/m 2,8 C 4,1 C 1,6 km/h (1 Bft) 97 %
30.03.2016 02:10 4,4 C 4,1 C 4,4 C 91 % 1011,4 hPa 0,0 l/m 1,6 km/h (1 Bft) SO 135 0 min 0,000 mm 0 W/m 3,1 C 4,4 C 6,4 km/h (2 Bft) 97 %
30.03.2016 02:20 4,4 C 4,4 C 4,4 C 91 % 1011,6 hPa 0,0 l/m 1,6 km/h (1 Bft) S-SO 157 0 min 0,000 mm 0 W/m 3,1 C 4,4 C 6,4 km/h (2 Bft) 98 %
30.03.2016 02:30 4,8 C 4,4 C 4,8 C 91 % 1011,4 hPa 0,0 l/m 4,8 km/h (1 Bft) S-SO 157 0 min 0,000 mm 0 W/m 3,5 C 4,8 C 11,3 km/h (2 Bft) 97 %
30.03.2016 02:40 5,6 C 4,8 C 5,6 C 90 % 1011,3 hPa 0,0 l/m 4,8 km/h (1 Bft) S-SO 157 0 min 0,000 mm 0 W/m 4,1 C 5,6 C 9,7 km/h (2 Bft) 100 %
30.03.2016 02:50 5,8 C 5,6 C 5,8 C 88 % 1011,2 hPa 0,0 l/m 3,2 km/h (1 Bft) S-SO 157 0 min 0,000 mm 0 W/m 4,0 C 5,8 C 11,3 km/h (2 Bft) 99 %
30.03.2016 03:00 6,2 C 5,8 C 6,2 C 86 % 1011,2 hPa 0,0 l/m 3,2 km/h (1 Bft) S-SO 157 0 min 0,000 mm 0 W/m 4,0 C 6,2 C 9,7 km/h (2 Bft) 100 %
30.03.2016 03:10 6,1 C 6,1 C 6,2 C 86 % 1011,1 hPa 0,0 l/m 1,6 km/h (1 Bft) S-SO 157 0 min 0,000 mm 0 W/m 3,9 C 6,1 C 6,4 km/h (2 Bft) 99 %
30.03.2016 03:20 6,0 C 6,0 C 6,1 C 86 % 1011,1 hPa 0,0 l/m 1,6 km/h (1 Bft) S-SO 157 0 min 0,000 mm 0 W/m 3,8 C 6,0 C 8,0 km/h (2 Bft) 100 %
30.03.2016 03:30 5,9 C 5,9 C 6,0 C 87 % 1011,4 hPa 0,0 l/m 1,6 km/h (1 Bft) S 180 0 min 0,000 mm 0 W/m 3,9 C 5,9 C 8,0 km/h (2 Bft) 99 %
30.03.2016 03:40 5,8 C 5,7 C 5,9 C 89 % 1011,2 hPa 0,0 l/m 4,8 km/h (1 Bft) S 180 0 min 0,000 mm 0 W/m 4,1 C 5,8 C 9,7 km/h (2 Bft) 91 %
30.03.2016 03:50 6,0 C 5,8 C 6,0 C 88 % 1011,0 hPa 0,0 l/m 4,8 km/h (1 Bft) S 180 0 min 0,000 mm 0 W/m 4,2 C 6,0 C 16,1 km/h (3 Bft) 100 %
30.03.2016 04:00 6,3 C 6,0 C 6,3 C 87 % 1010,8 hPa 0,0 l/m 4,8 km/h (1 Bft) S-SO 157 0 min 0,000 mm 0 W/m 4,3 C 6,3 C 14,5 km/h (3 Bft) 99 %
30.03.2016 04:10 6,3 C 6,2 C 6,3 C 87 % 1010,8 hPa 0,0 l/m 6,4 km/h (2 Bft) S-SO 157 0 min 0,000 mm 0 W/m 4,3 C 6,3 C 16,1 km/h (3 Bft) 100 %
30.03.2016 04:20 6,4 C 6,3 C 6,4 C 87 % 1010,6 hPa 0,0 l/m 8,0 km/h (2 Bft) S-SO 157 0 min 0,000 mm 0 W/m 4,4 C 5,1 C 16,1 km/h (3 Bft) 99 %
30.03.2016 04:30 6,8 C 6,4 C 6,8 C 86 % 1010,5 hPa 0,0 l/m 9,7 km/h (2 Bft) S-SO 157 0 min 0,000 mm 0 W/m 4,6 C 4,3 C 17,7 km/h (3 Bft) 100 %
30.03.2016 04:40 7,1 C 6,8 C 7,1 C 85 % 1010,4 hPa 0,0 l/m 8,0 km/h (2 Bft) S-SO 157 0 min 0,000 mm 0 W/m 4,8 C 5,8 C 17,7 km/h (3 Bft) 100 %
30.03.2016 04:50 7,1 C 7,1 C 7,1 C 85 % 1010,4 hPa 0,0 l/m 6,4 km/h (2 Bft) S 180 0 min 0,000 mm 0 W/m 4,8 C 7,1 C 11,3 km/h (2 Bft) 100 %
30.03.2016 05:00 7,0 C 6,9 C 7,1 C 86 % 1010,2 hPa 0,0 l/m 3,2 km/h (1 Bft) S-SO 157 0 min 0,025 mm 0 W/m 4,8 C 7,0 C 14,5 km/h (3 Bft) 100 %
30.03.2016 05:10 6,9 C 6,9 C 7,0 C 86 % 1010,4 hPa 0,0 l/m 1,6 km/h (1 Bft) S 180 0 min 0,000 mm 0 W/m 4,7 C 6,9 C 9,7 km/h (2 Bft) 100 %
30.03.2016 05:20 6,8 C 6,8 C 6,9 C 87 % 1010,3 hPa 0,0 l/m 1,6 km/h (1 Bft) S 180 0 min 0,000 mm 0 W/m 4,8 C 6,8 C 9,7 km/h (2 Bft) 99 %
30.03.2016 05:30 6,8 C 6,7 C 6,8 C 87 % 1010,3 hPa 0,0 l/m 3,2 km/h (1 Bft) S 180 0 min 0,000 mm 0 W/m 4,8 C 6,8 C 9,7 km/h (2 Bft) 100 %
30.03.2016 05:40 6,8 C 6,7 C 6,8 C 87 % 1010,3 hPa 0,0 l/m 3,2 km/h (1 Bft) S 180 0 min 0,000 mm 0 W/m 4,8 C 6,8 C 9,7 km/h (2 Bft) 99 %
30.03.2016 05:50 6,7 C 6,7 C 6,8 C 88 % 1010,3 hPa 0,0 l/m 4,8 km/h (1 Bft) S 180 0 min 0,000 mm 0 W/m 4,9 C 6,7 C 12,9 km/h (3 Bft) 99 %
30.03.2016 06:00 6,8 C 6,7 C 6,8 C 88 % 1010,3 hPa 0,0 l/m 4,8 km/h (1 Bft) S 180 0 min 0,000 mm 0 W/m 5,0 C 6,8 C 11,3 km/h (2 Bft) 88 %
30.03.2016 06:10 7,0 C 6,8 C 7,0 C 88 % 1010,2 hPa 0,0 l/m 1,6 km/h (1 Bft) S 180 0 min 0,000 mm 0 W/m 5,2 C 7,0 C 8,0 km/h (2 Bft) 100 %
30.03.2016 06:20 7,2 C 7,0 C 7,2 C 87 % 1010,3 hPa 0,0 l/m 3,2 km/h (1 Bft) S 180 0 min 0,000 mm 0 W/m 5,2 C 7,2 C 11,3 km/h (2 Bft) 99 %
30.03.2016 06:30 7,2 C 7,2 C 7,2 C 87 % 1010,2 hPa 0,0 l/m 1,6 km/h (1 Bft) S 180 0 min 0,000 mm 0 W/m 5,2 C 7,2 C 8,0 km/h (2 Bft) 100 %
30.03.2016 06:40 7,2 C 7,2 C 7,2 C 87 % 1010,1 hPa 0,0 l/m 0,0 km/h (0 Bft) S-SO 157 0 min 0,000 mm 0 W/m 5,2 C 7,2 C 6,4 km/h (2 Bft) 100 %
30.03.2016 06:50 7,1 C 7,1 C 7,2 C 88 % 1010,1 hPa 0,0 l/m 0,0 km/h (0 Bft) S 180 0 min 0,000 mm 0 W/m 5,2 C 7,1 C 6,4 km/h (2 Bft) 100 %
30.03.2016 07:00 7,2 C 7,1 C 7,2 C 88 % 1010,1 hPa 0,0 l/m 0,0 km/h (0 Bft) S 180 0 min 0,000 mm 0 W/m 5,3 C 7,2 C 1,6 km/h (1 Bft) 100 %
30.03.2016 07:10 7,2 C 7,1 C 7,2 C 88 % 1010,2 hPa 0,0 l/m 0,0 km/h (0 Bft) N 0 0 min 0,000 mm 0 W/m 5,3 C 7,2 C 0,0 km/h (0 Bft) 100 %
30.03.2016 07:20 7,0 C 7,0 C 7,2 C 88 % 1010,3 hPa 0,0 l/m 3,2 km/h (1 Bft) S-SO 157 0 min 0,000 mm 0 W/m 5,2 C 7,0 C 6,4 km/h (2 Bft) 100 %
30.03.2016 07:30 7,0 C 6,9 C 7,0 C 89 % 1010,3 hPa 0,0 l/m 3,2 km/h (1 Bft) S-SO 157 0 min 0,000 mm 7 W/m 5,3 C 7,0 C 8,0 km/h (2 Bft) 100 %
30.03.2016 07:40 7,2 C 7,0 C 7,2 C 89 % 1010,4 hPa 0,0 l/m 3,2 km/h (1 Bft) S-SO 157 0 min 0,000 mm 11 W/m 5,5 C 7,2 C 8,0 km/h (2 Bft) 100 %
30.03.2016 07:50 7,3 C 7,2 C 7,3 C 88 % 1010,6 hPa 0,0 l/m 1,6 km/h (1 Bft) S 180 0 min 0,000 mm 12 W/m 5,4 C 7,3 C 6,4 km/h (2 Bft) 100 %
30.03.2016 08:00 7,4 C 7,3 C 7,4 C 88 % 1010,6 hPa 0,0 l/m 1,6 km/h (1 Bft) S 180 0 min 0,000 mm 25 W/m 5,5 C 7,4 C 6,4 km/h (2 Bft) 99 %
30.03.2016 08:10 7,6 C 7,4 C 7,6 C 89 % 1010,6 hPa 0,0 l/m 1,6 km/h (1 Bft) S-SO 157 0 min 0,000 mm 25 W/m 5,9 C 7,6 C 6,4 km/h (2 Bft) 100 %
30.03.2016 08:20 7,7 C 7,6 C 7,7 C 88 % 1010,6 hPa 0,0 l/m 1,6 km/h (1 Bft) S-SO 157 0 min 0,000 mm 35 W/m 5,8 C 7,7 C 9,7 km/h (2 Bft) 90 %
30.03.2016 08:30 7,8 C 7,7 C 7,8 C 88 % 1010,6 hPa 0,0 l/m 0,0 km/h (0 Bft) S-SO 157 0 min 0,000 mm 35 W/m 5,9 C 7,8 C 6,4 km/h (2 Bft) 100 %
30.03.2016 08:40 7,8 C 7,8 C 7,9 C 88 % 1010,7 hPa 0,0 l/m 0,0 km/h (0 Bft) S-SO 157 0 min 0,000 mm 33 W/m 5,9 C 7,8 C 6,4 km/h (2 Bft) 100 %
30.03.2016 08:50 7,8 C 7,8 C 7,8 C 88 % 1010,9 hPa 0,0 l/m 0,0 km/h (0 Bft) S 180 0 min 0,000 mm 39 W/m 5,9 C 7,8 C 1,6 km/h (1 Bft) 100 %
30.03.2016 09:00 7,8 C 7,8 C 7,8 C 89 % 1010,8 hPa 0,0 l/m 4,8 km/h (1 Bft) S 180 0 min 0,025 mm 51 W/m 6,1 C 7,8 C 8,0 km/h (2 Bft) 100 %
30.03.2016 09:10 8,0 C 7,8 C 8,0 C 89 % 1011,0 hPa 0,0 l/m 0,0 km/h (0 Bft) S-SO 157 0 min 0,000 mm 72 W/m 6,3 C 8,0 C 6,4 km/h (2 Bft) 100 %
30.03.2016 09:20 8,1 C 8,0 C 8,1 C 90 % 1011,0 hPa 0,0 l/m 1,6 km/h (1 Bft) S 180 0 min 0,000 mm 90 W/m 6,6 C 8,1 C 8,0 km/h (2 Bft) 100 %
30.03.2016 09:30 8,3 C 8,1 C 8,3 C 90 % 1011,1 hPa 0,0 l/m 1,6 km/h (1 Bft) S-SW 202 0 min 0,000 mm 84 W/m 6,8 C 8,3 C 8,0 km/h (2 Bft) 100 %
30.03.2016 09:40 8,4 C 8,3 C 8,4 C 90 % 1011,1 hPa 0,0 l/m 1,6 km/h (1 Bft) S 180 0 min 0,000 mm 83 W/m 6,9 C 8,4 C 8,0 km/h (2 Bft) 100 %
30.03.2016 09:50 8,6 C 8,4 C 8,6 C 90 % 1011,3 hPa 0,0 l/m 1,6 km/h (1 Bft) S 180 0 min 0,000 mm 105 W/m 7,1 C 8,6 C 8,0 km/h (2 Bft) 100 %
30.03.2016 10:00 8,7 C 8,6 C 8,7 C 90 % 1011,4 hPa 0,0 l/m 1,6 km/h (1 Bft) S 180 0 min 0,051 mm 125 W/m 7,2 C 8,7 C 8,0 km/h (2 Bft) 100 %
30.03.2016 10:10 8,7 C 8,7 C 8,7 C 90 % 1011,4 hPa 0,2 l/m 3,2 km/h (1 Bft) S-SO 157 0 min 0,000 mm 113 W/m 7,2 C 8,7 C 9,7 km/h (2 Bft) 100 %
30.03.2016 10:20 8,7 C 8,7 C 8,7 C 91 % 1011,3 hPa 0,0 l/m 3,2 km/h (1 Bft) S-SO 157 0 min 0,000 mm 114 W/m 7,3 C 8,7 C 9,7 km/h (2 Bft) 100 %
30.03.2016 10:30 8,7 C 8,7 C 8,7 C 91 % 1011,5 hPa 0,0 l/m 3,2 km/h (1 Bft) S 180 0 min 0,000 mm 81 W/m 7,3 C 8,7 C 8,0 km/h (2 Bft) 100 %
30.03.2016 10:40 8,7 C 8,7 C 8,7 C 91 % 1011,6 hPa 0,2 l/m 1,6 km/h (1 Bft) S 180 0 min 0,000 mm 95 W/m 7,3 C 8,7 C 6,4 km/h (2 Bft) 100 %
30.03.2016 10:50 8,8 C 8,7 C 8,8 C 91 % 1011,8 hPa 0,4 l/m 0,0 km/h (0 Bft) S 180 0 min 0,000 mm 111 W/m 7,4 C 8,8 C 3,2 km/h (1 Bft) 100 %
30.03.2016 11:00 8,8 C 8,8 C 8,8 C 91 % 1011,8 hPa 0,2 l/m 1,6 km/h (1 Bft) S-SW 202 0 min 0,051 mm 114 W/m 7,4 C 8,8 C 8,0 km/h (2 Bft) 100 %
30.03.2016 11:10 8,9 C 8,8 C 8,9 C 91 % 1011,9 hPa 0,2 l/m 1,6 km/h (1 Bft) S-SW 202 0 min 0,000 mm 137 W/m 7,5 C 8,9 C 6,4 km/h (2 Bft) 100 %
30.03.2016 11:20 9,1 C 8,9 C 9,1 C 91 % 1011,9 hPa 0,2 l/m 0,0 km/h (0 Bft) S-SW 202 10 min 0,000 mm 162 W/m 7,7 C 9,1 C 6,4 km/h (2 Bft) 100 %
30.03.2016 11:30 9,1 C 9,1 C 9,1 C 91 % 1012,1 hPa 0,2 l/m 1,6 km/h (1 Bft) S 180 10 min 0,000 mm 160 W/m 7,7 C 9,1 C 6,4 km/h (2 Bft) 100 %
30.03.2016 11:40 9,2 C 9,1 C 9,2 C 91 % 1012,1 hPa 0,4 l/m 3,2 km/h (1 Bft) S-SW 202 0 min 0,000 mm 132 W/m 7,8 C 9,2 C 9,7 km/h (2 Bft) 100 %
30.03.2016 11:50 9,3 C 9,2 C 9,3 C 91 % 1012,2 hPa 0,0 l/m 4,8 km/h (1 Bft) SW 225 0 min 0,000 mm 127 W/m 7,9 C 9,3 C 14,5 km/h (3 Bft) 100 %
30.03.2016 12:00 9,4 C 9,3 C 9,4 C 91 % 1012,2 hPa 0,0 l/m 1,6 km/h (1 Bft) W-SW 247 0 min 0,051 mm 141 W/m 8,0 C 9,4 C 8,0 km/h (2 Bft) 100 %
30.03.2016 12:10 9,4 C 9,4 C 9,4 C 91 % 1012,4 hPa 0,2 l/m 1,6 km/h (1 Bft) W-NW 292 0 min 0,000 mm 81 W/m 8,0 C 9,4 C 17,7 km/h (3 Bft) 100 %
30.03.2016 12:30 9,0 C 9,0 C 9,4 C 91 % 1012,3 hPa 0,2 l/m 3,0 km/h (1 Bft) NW 321 0 min 0,000 mm 132 W/m 7,6 C 9,0 C 11,3 km/h (2 Bft) 97 %
30.03.2016 12:40 9,0 C 9,0 C 9,0 C 91 % 1012,4 hPa 0,0 l/m 4,3 km/h (1 Bft) W-NW 301 0 min 0,000 mm 109 W/m 7,6 C 9,0 C 11,3 km/h (2 Bft) 97 %
30.03.2016 12:50 9,1 C 9,0 C 9,1 C 91 % 1012,4 hPa 0,2 l/m 1,4 km/h (1 Bft) W-NW 298 0 min 0,000 mm 135 W/m 7,7 C 9,1 C 9,7 km/h (2 Bft) 98 %
30.03.2016 13:00 9,2 C 9,1 C 9,2 C 91 % 1012,5 hPa 0,0 l/m 0,4 km/h (0 Bft) W-NW 283 0 min 0,000 mm 144 W/m 7,8 C 9,2 C 6,4 km/h (2 Bft) 98 %
30.03.2016 13:10 9,3 C 9,2 C 9,3 C 91 % 1012,5 hPa 0,2 l/m 2,3 km/h (1 Bft) W 265 10 min 0,051 mm 171 W/m 7,9 C 9,3 C 9,7 km/h (2 Bft) 97 %
30.03.2016 13:20 9,4 C 9,3 C 9,4 C 91 % 1012,6 hPa 0,0 l/m 0,5 km/h (0 Bft) W 276 10 min 0,000 mm 169 W/m 8,0 C 9,4 C 6,4 km/h (2 Bft) 98 %
30.03.2016 13:30 9,4 C 9,4 C 9,5 C 91 % 1012,8 hPa 0,4 l/m 4,3 km/h (1 Bft) W-NW 300 0 min 0,000 mm 113 W/m 8,0 C 9,4 C 14,5 km/h (3 Bft) 97 %
30.03.2016 13:40 9,2 C 9,2 C 9,4 C 91 % 1012,9 hPa 0,4 l/m 7,8 km/h (2 Bft) W-NW 300 0 min 0,000 mm 125 W/m 7,8 C 8,2 C 17,7 km/h (3 Bft) 99 %
30.03.2016 13:50 9,1 C 9,1 C 9,2 C 91 % 1013,0 hPa 0,0 l/m 4,5 km/h (1 Bft) W-NW 290 10 min 0,000 mm 216 W/m 7,7 C 9,1 C 14,5 km/h (3 Bft) 99 %
30.03.2016 14:00 9,1 C 9,1 C 9,1 C 91 % 1012,8 hPa 0,2 l/m 6,0 km/h (2 Bft) W-NW 302 10 min 0,076 mm 234 W/m 7,7 C 9,1 C 16,1 km/h (3 Bft) 91 %
30.03.2016 14:10 9,2 C 9,1 C 9,2 C 91 % 1012,9 hPa 0,2 l/m 2,4 km/h (1 Bft) W 276 10 min 0,000 mm 290 W/m 7,8 C 9,2 C 11,3 km/h (2 Bft) 100 %
30.03.2016 14:20 9,4 C 9,2 C 9,4 C 91 % 1012,9 hPa 0,0 l/m 2,4 km/h (1 Bft) W-NW 298 10 min 0,000 mm 290 W/m 8,0 C 9,4 C 14,5 km/h (3 Bft) 100 %
30.03.2016 14:30 9,5 C 9,4 C 9,5 C 91 % 1012,9 hPa 0,2 l/m 1,6 km/h (1 Bft) W-NW 289 10 min 0,000 mm 279 W/m 8,1 C 9,5 C 11,3 km/h (2 Bft) 100 %
30.03.2016 14:40 9,7 C 9,5 C 9,7 C 91 % 1012,8 hPa 0,0 l/m 3,0 km/h (1 Bft) NW 315 10 min 0,000 mm 174 W/m 8,3 C 9,7 C 14,5 km/h (3 Bft) 100 %
30.03.2016 14:50 9,6 C 9,6 C 9,7 C 91 % 1012,8 hPa 0,2 l/m 3,0 km/h (1 Bft) W-SW 257 10 min 0,000 mm 269 W/m 8,2 C 9,6 C 9,7 km/h (2 Bft) 99 %
30.03.2016 15:00 9,6 C 9,6 C 9,6 C 91 % 1012,8 hPa 0,0 l/m 1,0 km/h (0 Bft) W-SW 252 10 min 0,127 mm 155 W/m 8,2 C 9,6 C 6,4 km/h (2 Bft) 100 %
30.03.2016 15:10 9,6 C 9,6 C 9,6 C 91 % 1012,6 hPa 0,0 l/m 2,9 km/h (1 Bft) W 263 10 min 0,000 mm 220 W/m 8,2 C 9,6 C 11,3 km/h (2 Bft) 100 %
30.03.2016 15:20 9,7 C 9,6 C 9,7 C 91 % 1012,6 hPa 0,0 l/m 3,1 km/h (1 Bft) W-SW 257 10 min 0,000 mm 229 W/m 8,3 C 9,7 C 11,3 km/h (2 Bft) 100 %
30.03.2016 15:30 9,8 C 9,7 C 9,8 C 91 % 1012,6 hPa 0,0 l/m 3,0 km/h (1 Bft) SW 224 10 min 0,000 mm 257 W/m 8,4 C 9,8 C 11,3 km/h (2 Bft) 100 %
30.03.2016 15:40 9,8 C 9,8 C 9,8 C 90 % 1012,4 hPa 0,0 l/m 5,2 km/h (1 Bft) S-SW 208 10 min 0,000 mm 227 W/m 8,2 C 9,8 C 14,5 km/h (3 Bft) 100 %
30.03.2016 15:50 9,8 C 9,7 C 9,8 C 90 % 1012,3 hPa 0,0 l/m 3,9 km/h (1 Bft) W-SW 248 0 min 0,000 mm 137 W/m 8,2 C 9,8 C 12,9 km/h (3 Bft) 100 %
30.03.2016 16:00 9,6 C 9,6 C 9,8 C 90 % 1012,3 hPa 0,0 l/m 2,3 km/h (1 Bft) W 259 0 min 0,000 mm 113 W/m 8,0 C 9,6 C 9,7 km/h (2 Bft) 100 %
30.03.2016 16:10 9,5 C 9,5 C 9,6 C 89 % 1012,4 hPa 0,0 l/m 2,8 km/h (1 Bft) W-SW 254 0 min 0,102 mm 67 W/m 7,8 C 9,5 C 9,7 km/h (2 Bft) 100 %
30.03.2016 16:20 9,4 C 9,4 C 9,5 C 90 % 1012,5 hPa 0,0 l/m 2,6 km/h (1 Bft) SW 233 0 min 0,000 mm 54 W/m 7,8 C 9,4 C 11,3 km/h (2 Bft) 100 %
30.03.2016 16:30 9,3 C 9,3 C 9,4 C 90 % 1012,6 hPa 0,0 l/m 4,1 km/h (1 Bft) W-SW 240 0 min 0,000 mm 42 W/m 7,7 C 9,3 C 12,9 km/h (3 Bft) 100 %
30.03.2016 16:40 9,2 C 9,2 C 9,3 C 91 % 1012,6 hPa 0,2 l/m 1,8 km/h (1 Bft) W-SW 246 0 min 0,000 mm 62 W/m 7,8 C 9,2 C 8,0 km/h (2 Bft) 100 %
30.03.2016 16:50 9,1 C 9,1 C 9,2 C 91 % 1012,4 hPa 0,0 l/m 0,9 km/h (0 Bft) SW 219 0 min 0,000 mm 69 W/m 7,7 C 9,1 C 8,0 km/h (2 Bft) 100 %
30.03.2016 17:00 9,1 C 9,1 C 9,2 C 91 % 1012,5 hPa 0,2 l/m 1,9 km/h (1 Bft) S-SW 209 0 min 0,025 mm 46 W/m 7,7 C 9,1 C 9,7 km/h (2 Bft) 100 %
30.03.2016 17:10 8,9 C 8,9 C 9,1 C 91 % 1012,4 hPa 0,0 l/m 2,7 km/h (1 Bft) S-SW 202 0 min 0,000 mm 70 W/m 7,5 C 8,9 C 9,7 km/h (2 Bft) 99 %
30.03.2016 17:20 8,9 C 8,9 C 8,9 C 91 % 1012,2 hPa 0,0 l/m 0,5 km/h (0 Bft) S-SW 202 0 min 0,000 mm 90 W/m 7,5 C 8,9 C 6,4 km/h (2 Bft) 100 %
30.03.2016 17:30 8,9 C 8,9 C 8,9 C 91 % 1012,2 hPa 0,0 l/m 0,0 km/h (0 Bft) S-SW 202 0 min 0,000 mm 84 W/m 7,5 C 8,9 C 0,0 km/h (0 Bft) 100 %
30.03.2016 17:40 8,9 C 8,9 C 8,9 C 91 % 1012,4 hPa 0,0 l/m 1,8 km/h (1 Bft) W-SW 239 0 min 0,000 mm 60 W/m 7,5 C 8,9 C 8,0 km/h (2 Bft) 100 %
30.03.2016 17:50 8,8 C 8,8 C 8,9 C 91 % 1012,3 hPa 0,0 l/m 1,0 km/h (0 Bft) W-SW 255 0 min 0,000 mm 53 W/m 7,4 C 8,8 C 6,4 km/h (2 Bft) 100 %
30.03.2016 18:00 8,8 C 8,8 C 8,8 C 91 % 1012,2 hPa 0,0 l/m 0,2 km/h (0 Bft) W-SW 252 0 min 0,026 mm 65 W/m 7,4 C 8,8 C 4,8 km/h (1 Bft) 100 %
30.03.2016 18:10 8,8 C 8,8 C 8,8 C 91 % 1012,2 hPa 0,0 l/m 0,9 km/h (0 Bft) W-SW 253 0 min 0,000 mm 49 W/m 7,4 C 8,8 C 8,0 km/h (2 Bft) 100 %
30.03.2016 18:20 8,8 C 8,8 C 8,8 C 91 % 1012,0 hPa 0,0 l/m 0,9 km/h (0 Bft) W 260 0 min 0,000 mm 53 W/m 7,4 C 8,8 C 6,4 km/h (2 Bft) 100 %
30.03.2016 18:30 8,8 C 8,8 C 8,8 C 91 % 1012,2 hPa 0,0 l/m 0,0 km/h (0 Bft) W 260 0 min 0,000 mm 62 W/m 7,4 C 8,8 C 0,0 km/h (0 Bft) 91 %
30.03.2016 18:40 8,8 C 8,8 C 8,8 C 91 % 1012,3 hPa 0,0 l/m 0,9 km/h (0 Bft) W 260 0 min 0,000 mm 30 W/m 7,4 C 8,8 C 6,4 km/h (2 Bft) 100 %
30.03.2016 18:50 8,8 C 8,8 C 8,8 C 91 % 1012,2 hPa 0,0 l/m 0,3 km/h (0 Bft) W 260 0 min 0,000 mm 33 W/m 7,4 C 8,8 C 6,4 km/h (2 Bft) 100 %
30.03.2016 19:00 8,8 C 8,8 C 8,8 C 91 % 1011,9 hPa 0,0 l/m 0,0 km/h (0 Bft) W 260 0 min 0,025 mm 33 W/m 7,4 C 8,8 C 0,0 km/h (0 Bft) 100 %
30.03.2016 19:10 8,8 C 8,8 C 8,8 C 91 % 1011,9 hPa 0,0 l/m 0,0 km/h (0 Bft) W 260 0 min 0,000 mm 28 W/m 7,4 C 8,8 C 1,6 km/h (1 Bft) 100 %
30.03.2016 19:20 8,8 C 8,8 C 8,8 C 91 % 1011,7 hPa 0,0 l/m 0,0 km/h (0 Bft) W 260 0 min 0,000 mm 11 W/m 7,4 C 8,8 C 0,0 km/h (0 Bft) 100 %
30.03.2016 19:30 8,7 C 8,7 C 8,8 C 91 % 1011,6 hPa 0,0 l/m 0,0 km/h (0 Bft) W 259 0 min 0,000 mm 7 W/m 7,3 C 8,7 C 1,6 km/h (1 Bft) 100 %
30.03.2016 19:40 8,6 C 8,6 C 8,7 C 91 % 1011,6 hPa 0,0 l/m 0,0 km/h (0 Bft) W 259 0 min 0,000 mm 0 W/m 7,2 C 8,6 C 0,0 km/h (0 Bft) 100 %
30.03.2016 19:50 8,4 C 8,4 C 8,6 C 91 % 1011,6 hPa 0,0 l/m 0,2 km/h (0 Bft) W 259 0 min 0,000 mm 0 W/m 7,0 C 8,4 C 3,2 km/h (1 Bft) 100 %
30.03.2016 20:00 8,3 C 8,3 C 8,4 C 91 % 1011,6 hPa 0,0 l/m 0,0 km/h (0 Bft) W 259 0 min 0,000 mm 0 W/m 6,9 C 8,3 C 0,0 km/h (0 Bft) 100 %
30.03.2016 20:10 8,2 C 8,2 C 8,3 C 91 % 1011,7 hPa 0,0 l/m 0,0 km/h (0 Bft) W 259 0 min 0,000 mm 0 W/m 6,8 C 8,2 C 0,0 km/h (0 Bft) 100 %
30.03.2016 20:20 8,1 C 8,1 C 8,2 C 91 % 1011,6 hPa 0,0 l/m 0,0 km/h (0 Bft) W 259 0 min 0,000 mm 0 W/m 6,7 C 8,1 C 0,0 km/h (0 Bft) 100 %
30.03.2016 20:30 8,0 C 8,0 C 8,1 C 91 % 1011,7 hPa 0,0 l/m 0,0 km/h (0 Bft) W 259 0 min 0,000 mm 0 W/m 6,6 C 8,0 C 0,0 km/h (0 Bft) 100 %
30.03.2016 20:40 7,8 C 7,8 C 8,0 C 91 % 1011,8 hPa 0,0 l/m 0,0 km/h (0 Bft) W 259 0 min 0,000 mm 0 W/m 6,4 C 7,8 C 0,0 km/h (0 Bft) 100 %
30.03.2016 20:50 7,6 C 7,6 C 7,8 C 91 % 1011,9 hPa 0,0 l/m 0,0 km/h (0 Bft) W 259 0 min 0,000 mm 0 W/m 6,2 C 7,6 C 0,0 km/h (0 Bft) 100 %
30.03.2016 21:00 7,5 C 7,5 C 7,6 C 91 % 1011,8 hPa 0,0 l/m 0,0 km/h (0 Bft) W 259 0 min 0,000 mm 0 W/m 6,1 C 7,5 C 1,6 km/h (1 Bft) 100 %
30.03.2016 21:10 7,4 C 7,4 C 7,5 C 91 % 1011,8 hPa 0,0 l/m 0,0 km/h (0 Bft) N 0 0 min 0,000 mm 0 W/m 6,0 C 7,4 C 0,0 km/h (0 Bft) 98 %
30.03.2016 21:20 7,3 C 7,3 C 7,4 C 91 % 1011,8 hPa 0,0 l/m 0,0 km/h (0 Bft) W 270 0 min 0,000 mm 0 W/m 5,9 C 7,3 C 1,6 km/h (1 Bft) 97 %
30.03.2016 21:30 7,2 C 7,2 C 7,3 C 91 % 1011,7 hPa 0,0 l/m 0,0 km/h (0 Bft) N 0 0 min 0,000 mm 0 W/m 5,8 C 7,2 C 0,0 km/h (0 Bft) 98 %
30.03.2016 21:40 7,2 C 7,2 C 7,2 C 91 % 1011,6 hPa 0,0 l/m 0,0 km/h (0 Bft) N 0 0 min 0,000 mm 0 W/m 5,8 C 7,2 C 0,0 km/h (0 Bft) 97 %
30.03.2016 21:50 7,2 C 7,2 C 7,2 C 91 % 1011,8 hPa 0,0 l/m 0,0 km/h (0 Bft) W 270 0 min 0,000 mm 0 W/m 5,8 C 7,2 C 1,6 km/h (1 Bft) 96 %
30.03.2016 22:00 7,1 C 7,1 C 7,2 C 91 % 1011,7 hPa 0,0 l/m 0,0 km/h (0 Bft) N 0 0 min 0,000 mm 0 W/m 5,7 C 7,1 C 0,0 km/h (0 Bft) 98 %
30.03.2016 22:10 7,1 C 7,1 C 7,1 C 91 % 1011,4 hPa 0,0 l/m 1,6 km/h (1 Bft) W 270 0 min 0,000 mm 0 W/m 5,7 C 7,1 C 4,8 km/h (1 Bft) 97 %
30.03.2016 22:20 7,1 C 7,1 C 7,1 C 91 % 1011,8 hPa 0,2 l/m 0,0 km/h (0 Bft) N 0 0 min 0,000 mm 0 W/m 5,7 C 7,1 C 0,0 km/h (0 Bft) 98 %
30.03.2016 22:30 7,1 C 7,1 C 7,1 C 91 % 1011,5 hPa 0,0 l/m 0,0 km/h (0 Bft) W 270 0 min 0,000 mm 0 W/m 5,7 C 7,1 C 3,2 km/h (1 Bft) 97 %
30.03.2016 22:40 7,1 C 7,1 C 7,1 C 91 % 1011,7 hPa 0,0 l/m 1,6 km/h (1 Bft) W 270 0 min 0,000 mm 0 W/m 5,7 C 7,1 C 4,8 km/h (1 Bft) 98 %
30.03.2016 22:50 7,0 C 7,0 C 7,1 C 91 % 1011,8 hPa 0,0 l/m 0,0 km/h (0 Bft) NW 315 0 min 0,000 mm 0 W/m 5,6 C 7,0 C 3,2 km/h (1 Bft) 97 %
30.03.2016 23:00 7,0 C 7,0 C 7,0 C 91 % 1011,8 hPa 0,0 l/m 0,0 km/h (0 Bft) N 0 0 min 0,000 mm 0 W/m 5,6 C 7,0 C 0,0 km/h (0 Bft) 98 %
30.03.2016 23:10 7,0 C 7,0 C 7,0 C 91 % 1011,9 hPa 0,2 l/m 0,0 km/h (0 Bft) N 0 0 min 0,000 mm 0 W/m 5,6 C 7,0 C 0,0 km/h (0 Bft) 98 %
30.03.2016 23:20 7,0 C 7,0 C 7,1 C 91 % 1012,0 hPa 0,4 l/m 0,0 km/h (0 Bft) NW 315 0 min 0,000 mm 0 W/m 5,6 C 7,0 C 1,6 km/h (1 Bft) 98 %
30.03.2016 23:30 7,1 C 7,0 C 7,1 C 91 % 1011,8 hPa 0,4 l/m 0,0 km/h (0 Bft) N 0 0 min 0,000 mm 0 W/m 5,7 C 7,1 C 0,0 km/h (0 Bft) 98 %
30.03.2016 23:40 7,3 C 7,1 C 7,3 C 91 % 1011,3 hPa 0,6 l/m 0,0 km/h (0 Bft) N-NW 337 0 min 0,000 mm 0 W/m 5,9 C 7,3 C 3,2 km/h (1 Bft) 98 %
30.03.2016 23:50 7,6 C 7,3 C 7,6 C 91 % 1011,3 hPa 0,4 l/m 0,0 km/h (0 Bft) N 0 0 min 0,000 mm 0 W/m 6,2 C 7,6 C 0,0 km/h (0 Bft) 97 %
_ Min-Zeit 01:50 01:50 02:00 04:40 06:40 - 00:00 - - - - - 01:50 01:50 00:40 06:00
Minimum _ 4,1 C 4,1 C 4,1 C 85 % 1010,1 hPa - 0,0 km/h (0 Bft) - - - - - 2,8 C 4,1 C 0,0 km/h (0 Bft) 88 %
_ Max-Zeit 15:30 15:40 15:30 00:10 13:50 23:40 04:30 - - 11:20 15:00 14:10 15:30 15:30 04:30 03:20
Maximum _ 9,8 C 9,8 C 9,8 C 91 % 1013,0 hPa 0,6 l/m 9,7 km/h
S-SO (2 Bft)
- - 10 min 0,127 mm 290 W/m 8,4 C 9,8 C 17,7 km/h
S-SO (3 Bft)
100 %
Durchschnitt _ 7,7 C 7,6 C 7,7 C 90 % 1011,6 hPa #7,0 l/m 1,8 km/h (1 Bft) S - #2:40 h #0,635 mm 106 W/m 6,1 C 7,6 C 6,8 km/h (2 Bft) 99 %
PRIVATE WETTERSTATION BILLIGHEIM-ALLFELD - www.neckar-odenwald-wetter.de - Holger Sonntag